sensor_id;sensor_type;location;lat;lon;timestamp;P1;durP1;ratioP1;P2;durP2;ratioP2
24277;SDS011;12394;42.692;23.314;2022-12-16T00:00:11;143.57;;;88.23;;
24277;SDS011;12394;42.692;23.314;2022-12-16T00:02:37;161.03;;;93.93;;
24277;SDS011;12394;42.692;23.314;2022-12-16T00:05:03;155.80;;;91.60;;
24277;SDS011;12394;42.692;23.314;2022-12-16T00:07:29;159.23;;;91.10;;
24277;SDS011;12394;42.692;23.314;2022-12-16T00:09:54;145.80;;;88.13;;
24277;SDS011;12394;42.692;23.314;2022-12-16T00:12:19;148.23;;;92.00;;
24277;SDS011;12394;42.692;23.314;2022-12-16T00:14:45;150.37;;;86.53;;
24277;SDS011;12394;42.692;23.314;2022-12-16T00:17:10;158.70;;;91.60;;
24277;SDS011;12394;42.692;23.314;2022-12-16T00:19:35;157.47;;;89.47;;
24277;SDS011;12394;42.692;23.314;2022-12-16T00:22:01;147.73;;;87.30;;
24277;SDS011;12394;42.692;23.314;2022-12-16T00:24:26;156.23;;;93.03;;
24277;SDS011;12394;42.692;23.314;2022-12-16T00:26:52;160.60;;;90.30;;
24277;SDS011;12394;42.692;23.314;2022-12-16T00:29:17;170.10;;;97.83;;
24277;SDS011;12394;42.692;23.314;2022-12-16T00:31:43;152.80;;;90.97;;
24277;SDS011;12394;42.692;23.314;2022-12-16T00:34:12;161.63;;;96.63;;
24277;SDS011;12394;42.692;23.314;2022-12-16T00:36:38;170.77;;;100.10;;
24277;SDS011;12394;42.692;23.314;2022-12-16T00:39:03;147.90;;;91.53;;
24277;SDS011;12394;42.692;23.314;2022-12-16T00:41:29;159.13;;;95.67;;
24277;SDS011;12394;42.692;23.314;2022-12-16T00:43:54;158.70;;;93.33;;
24277;SDS011;12394;42.692;23.314;2022-12-16T00:46:19;163.33;;;93.43;;
24277;SDS011;12394;42.692;23.314;2022-12-16T00:48:45;151.70;;;88.07;;
24277;SDS011;12394;42.692;23.314;2022-12-16T00:51:10;155.37;;;88.73;;
24277;SDS011;12394;42.692;23.314;2022-12-16T00:53:36;161.20;;;87.77;;
24277;SDS011;12394;42.692;23.314;2022-12-16T00:56:06;154.40;;;89.03;;
24277;SDS011;12394;42.692;23.314;2022-12-16T00:58:33;159.80;;;93.07;;
24277;SDS011;12394;42.692;23.314;2022-12-16T01:00:59;153.97;;;90.27;;
24277;SDS011;12394;42.692;23.314;2022-12-16T01:03:25;168.63;;;90.67;;
24277;SDS011;12394;42.692;23.314;2022-12-16T01:05:51;150.13;;;87.40;;
24277;SDS011;12394;42.692;23.314;2022-12-16T01:08:17;150.93;;;85.47;;
24277;SDS011;12394;42.692;23.314;2022-12-16T01:10:48;158.33;;;86.97;;
24277;SDS011;12394;42.692;23.314;2022-12-16T01:13:18;156.37;;;89.60;;
24277;SDS011;12394;42.692;23.314;2022-12-16T01:15:44;153.67;;;87.97;;
24277;SDS011;12394;42.692;23.314;2022-12-16T01:18:09;158.93;;;87.50;;
24277;SDS011;12394;42.692;23.314;2022-12-16T01:20:35;165.50;;;87.07;;
24277;SDS011;12394;42.692;23.314;2022-12-16T01:23:00;156.30;;;84.53;;
24277;SDS011;12394;42.692;23.314;2022-12-16T01:25:30;171.80;;;88.33;;
24277;SDS011;12394;42.692;23.314;2022-12-16T01:27:56;160.83;;;81.87;;
24277;SDS011;12394;42.692;23.314;2022-12-16T01:30:21;163.50;;;84.60;;
24277;SDS011;12394;42.692;23.314;2022-12-16T01:32:47;159.20;;;85.53;;
24277;SDS011;12394;42.692;23.314;2022-12-16T01:35:13;168.70;;;83.07;;
24277;SDS011;12394;42.692;23.314;2022-12-16T01:37:38;168.87;;;83.93;;
24277;SDS011;12394;42.692;23.314;2022-12-16T01:40:04;171.70;;;85.90;;
24277;SDS011;12394;42.692;23.314;2022-12-16T01:42:31;156.63;;;81.40;;
24277;SDS011;12394;42.692;23.314;2022-12-16T01:45:14;160.90;;;80.60;;
24277;SDS011;12394;42.692;23.314;2022-12-16T01:47:48;169.50;;;80.10;;
24277;SDS011;12394;42.692;23.314;2022-12-16T01:50:15;173.10;;;83.43;;
24277;SDS011;12394;42.692;23.314;2022-12-16T01:52:42;159.47;;;83.30;;
24277;SDS011;12394;42.692;23.314;2022-12-16T01:55:27;179.93;;;87.77;;
24277;SDS011;12394;42.692;23.314;2022-12-16T01:58:03;177.80;;;86.63;;
24277;SDS011;12394;42.692;23.314;2022-12-16T02:00:38;176.87;;;86.67;;
24277;SDS011;12394;42.692;23.314;2022-12-16T02:03:04;162.73;;;84.77;;
24277;SDS011;12394;42.692;23.314;2022-12-16T02:05:31;151.37;;;80.50;;
24277;SDS011;12394;42.692;23.314;2022-12-16T02:08:01;164.60;;;74.13;;
24277;SDS011;12394;42.692;23.314;2022-12-16T02:27:05;155.63;;;70.47;;
24277;SDS011;12394;42.692;23.314;2022-12-16T02:40:29;133.00;;;68.00;;
24277;SDS011;12394;42.692;23.314;2022-12-16T02:43:03;135.20;;;71.93;;
24277;SDS011;12394;42.692;23.314;2022-12-16T02:45:33;139.03;;;70.80;;
24277;SDS011;12394;42.692;23.314;2022-12-16T02:47:59;125.67;;;69.33;;
24277;SDS011;12394;42.692;23.314;2022-12-16T02:50:27;126.03;;;63.93;;
24277;SDS011;12394;42.692;23.314;2022-12-16T02:52:57;114.70;;;62.93;;
24277;SDS011;12394;42.692;23.314;2022-12-16T02:55:27;125.43;;;66.27;;
24277;SDS011;12394;42.692;23.314;2022-12-16T02:57:59;138.13;;;68.13;;
24277;SDS011;12394;42.692;23.314;2022-12-16T03:00:51;136.80;;;68.33;;
24277;SDS011;12394;42.692;23.314;2022-12-16T03:03:26;130.60;;;69.57;;
24277;SDS011;12394;42.692;23.314;2022-12-16T03:06:01;132.10;;;68.60;;
24277;SDS011;12394;42.692;23.314;2022-12-16T03:08:29;132.30;;;65.33;;
24277;SDS011;12394;42.692;23.314;2022-12-16T03:11:00;126.27;;;67.90;;
24277;SDS011;12394;42.692;23.314;2022-12-16T03:13:32;117.87;;;61.13;;
24277;SDS011;12394;42.692;23.314;2022-12-16T03:16:03;111.83;;;58.40;;
24277;SDS011;12394;42.692;23.314;2022-12-16T03:18:32;109.33;;;59.13;;
24277;SDS011;12394;42.692;23.314;2022-12-16T03:21:02;99.13;;;49.87;;
24277;SDS011;12394;42.692;23.314;2022-12-16T03:23:32;109.97;;;54.60;;
24277;SDS011;12394;42.692;23.314;2022-12-16T03:26:07;93.03;;;51.13;;
24277;SDS011;12394;42.692;23.314;2022-12-16T03:28:50;96.00;;;49.80;;
24277;SDS011;12394;42.692;23.314;2022-12-16T03:34:04;95.03;;;52.20;;
24277;SDS011;12394;42.692;23.314;2022-12-16T03:36:32;97.07;;;55.57;;
24277;SDS011;12394;42.692;23.314;2022-12-16T03:39:02;101.03;;;57.87;;
24277;SDS011;12394;42.692;23.314;2022-12-16T03:41:29;95.83;;;56.10;;
24277;SDS011;12394;42.692;23.314;2022-12-16T03:43:56;101.70;;;57.23;;
24277;SDS011;12394;42.692;23.314;2022-12-16T03:46:22;93.30;;;55.03;;
24277;SDS011;12394;42.692;23.314;2022-12-16T03:48:48;97.67;;;52.40;;
24277;SDS011;12394;42.692;23.314;2022-12-16T03:51:15;100.57;;;52.97;;
24277;SDS011;12394;42.692;23.314;2022-12-16T03:53:41;92.93;;;49.07;;
24277;SDS011;12394;42.692;23.314;2022-12-16T03:56:07;94.03;;;51.57;;
24277;SDS011;12394;42.692;23.314;2022-12-16T03:58:33;86.07;;;48.20;;
24277;SDS011;12394;42.692;23.314;2022-12-16T04:00:59;79.57;;;48.03;;
24277;SDS011;12394;42.692;23.314;2022-12-16T04:03:25;90.50;;;45.10;;
24277;SDS011;12394;42.692;23.314;2022-12-16T04:05:50;79.00;;;46.37;;
24277;SDS011;12394;42.692;23.314;2022-12-16T04:08:16;75.33;;;46.77;;
24277;SDS011;12394;42.692;23.314;2022-12-16T04:10:41;82.83;;;46.47;;
24277;SDS011;12394;42.692;23.314;2022-12-16T04:13:25;77.07;;;44.10;;
24277;SDS011;12394;42.692;23.314;2022-12-16T04:16:15;80.23;;;43.87;;
24277;SDS011;12394;42.692;23.314;2022-12-16T04:19:41;78.40;;;43.70;;
24277;SDS011;12394;42.692;23.314;2022-12-16T04:22:26;77.93;;;43.07;;
24277;SDS011;12394;42.692;23.314;2022-12-16T04:25:18;75.20;;;42.33;;
24277;SDS011;12394;42.692;23.314;2022-12-16T04:27:46;70.63;;;40.03;;
24277;SDS011;12394;42.692;23.314;2022-12-16T04:30:12;75.03;;;41.67;;
24277;SDS011;12394;42.692;23.314;2022-12-16T04:32:55;71.83;;;41.27;;
24277;SDS011;12394;42.692;23.314;2022-12-16T04:35:42;62.60;;;38.40;;
24277;SDS011;12394;42.692;23.314;2022-12-16T04:38:27;70.40;;;39.77;;
24277;SDS011;12394;42.692;23.314;2022-12-16T04:41:11;69.00;;;39.50;;
24277;SDS011;12394;42.692;23.314;2022-12-16T04:43:55;66.20;;;38.07;;
24277;SDS011;12394;42.692;23.314;2022-12-16T04:46:39;73.80;;;37.57;;
24277;SDS011;12394;42.692;23.314;2022-12-16T04:49:22;71.73;;;39.17;;
24277;SDS011;12394;42.692;23.314;2022-12-16T04:52:06;69.63;;;36.43;;
24277;SDS011;12394;42.692;23.314;2022-12-16T04:54:51;68.60;;;36.10;;
24277;SDS011;12394;42.692;23.314;2022-12-16T04:57:35;62.23;;;36.03;;
24277;SDS011;12394;42.692;23.314;2022-12-16T05:00:19;59.47;;;36.30;;
24277;SDS011;12394;42.692;23.314;2022-12-16T05:03:03;61.47;;;35.33;;
24277;SDS011;12394;42.692;23.314;2022-12-16T05:05:47;58.10;;;34.87;;
24277;SDS011;12394;42.692;23.314;2022-12-16T05:08:31;55.40;;;34.73;;
24277;SDS011;12394;42.692;23.314;2022-12-16T05:11:15;58.30;;;34.70;;
24277;SDS011;12394;42.692;23.314;2022-12-16T05:13:59;58.20;;;34.40;;
24277;SDS011;12394;42.692;23.314;2022-12-16T05:16:43;58.50;;;33.73;;
24277;SDS011;12394;42.692;23.314;2022-12-16T05:19:27;57.77;;;35.47;;
24277;SDS011;12394;42.692;23.314;2022-12-16T05:22:11;66.43;;;40.63;;
24277;SDS011;12394;42.692;23.314;2022-12-16T05:24:55;55.13;;;31.83;;
24277;SDS011;12394;42.692;23.314;2022-12-16T05:27:39;61.00;;;34.90;;
24277;SDS011;12394;42.692;23.314;2022-12-16T05:30:24;61.60;;;35.53;;
24277;SDS011;12394;42.692;23.314;2022-12-16T05:33:08;49.20;;;30.33;;
24277;SDS011;12394;42.692;23.314;2022-12-16T05:35:52;56.17;;;31.70;;
24277;SDS011;12394;42.692;23.314;2022-12-16T05:38:35;62.53;;;37.10;;
24277;SDS011;12394;42.692;23.314;2022-12-16T05:41:20;80.00;;;42.47;;
24277;SDS011;12394;42.692;23.314;2022-12-16T05:44:03;68.47;;;38.40;;
24277;SDS011;12394;42.692;23.314;2022-12-16T05:46:47;56.93;;;33.27;;
24277;SDS011;12394;42.692;23.314;2022-12-16T05:49:31;57.87;;;33.40;;
24277;SDS011;12394;42.692;23.314;2022-12-16T05:52:15;48.00;;;29.43;;
24277;SDS011;12394;42.692;23.314;2022-12-16T05:54:59;50.37;;;30.00;;
24277;SDS011;12394;42.692;23.314;2022-12-16T05:57:43;50.50;;;30.30;;
24277;SDS011;12394;42.692;23.314;2022-12-16T06:00:27;58.10;;;33.00;;
24277;SDS011;12394;42.692;23.314;2022-12-16T06:03:11;55.10;;;34.00;;
24277;SDS011;12394;42.692;23.314;2022-12-16T06:05:55;55.90;;;32.63;;
24277;SDS011;12394;42.692;23.314;2022-12-16T06:08:39;63.70;;;34.80;;
24277;SDS011;12394;42.692;23.314;2022-12-16T06:11:23;60.27;;;36.07;;
24277;SDS011;12394;42.692;23.314;2022-12-16T06:14:07;54.73;;;33.50;;
24277;SDS011;12394;42.692;23.314;2022-12-16T06:16:51;56.53;;;38.53;;
24277;SDS011;12394;42.692;23.314;2022-12-16T06:19:35;55.47;;;35.37;;
24277;SDS011;12394;42.692;23.314;2022-12-16T06:22:19;51.63;;;32.97;;
24277;SDS011;12394;42.692;23.314;2022-12-16T06:25:03;58.63;;;34.40;;
24277;SDS011;12394;42.692;23.314;2022-12-16T06:27:50;58.13;;;34.30;;
24277;SDS011;12394;42.692;23.314;2022-12-16T06:30:35;54.83;;;31.13;;
24277;SDS011;12394;42.692;23.314;2022-12-16T06:33:20;58.70;;;33.53;;
24277;SDS011;12394;42.692;23.314;2022-12-16T06:36:09;58.60;;;31.93;;
24277;SDS011;12394;42.692;23.314;2022-12-16T06:38:52;59.67;;;34.17;;
24277;SDS011;12394;42.692;23.314;2022-12-16T06:41:36;59.33;;;33.17;;
24277;SDS011;12394;42.692;23.314;2022-12-16T06:44:20;64.37;;;35.87;;
24277;SDS011;12394;42.692;23.314;2022-12-16T06:47:04;59.30;;;32.97;;
24277;SDS011;12394;42.692;23.314;2022-12-16T06:49:48;60.60;;;32.87;;
24277;SDS011;12394;42.692;23.314;2022-12-16T06:52:32;60.73;;;32.93;;
24277;SDS011;12394;42.692;23.314;2022-12-16T06:55:16;57.63;;;32.47;;
24277;SDS011;12394;42.692;23.314;2022-12-16T06:58:00;56.33;;;31.33;;
24277;SDS011;12394;42.692;23.314;2022-12-16T07:00:45;62.03;;;33.27;;
24277;SDS011;12394;42.692;23.314;2022-12-16T07:03:29;70.37;;;36.97;;
24277;SDS011;12394;42.692;23.314;2022-12-16T07:06:13;70.23;;;37.40;;
24277;SDS011;12394;42.692;23.314;2022-12-16T07:08:57;61.90;;;37.77;;
24277;SDS011;12394;42.692;23.314;2022-12-16T07:11:41;60.10;;;36.83;;
24277;SDS011;12394;42.692;23.314;2022-12-16T07:14:25;68.37;;;38.60;;
24277;SDS011;12394;42.692;23.314;2022-12-16T07:17:09;66.80;;;39.20;;
24277;SDS011;12394;42.692;23.314;2022-12-16T07:19:53;67.25;;;42.55;;
24277;SDS011;12394;42.692;23.314;2022-12-16T07:22:41;70.60;;;40.77;;
24277;SDS011;12394;42.692;23.314;2022-12-16T07:25:25;70.50;;;40.20;;
24277;SDS011;12394;42.692;23.314;2022-12-16T07:28:09;76.37;;;40.20;;
24277;SDS011;12394;42.692;23.314;2022-12-16T07:30:53;77.30;;;42.37;;
24277;SDS011;12394;42.692;23.314;2022-12-16T07:33:37;84.23;;;43.03;;
24277;SDS011;12394;42.692;23.314;2022-12-16T07:36:21;87.00;;;45.53;;
24277;SDS011;12394;42.692;23.314;2022-12-16T07:39:05;82.83;;;44.90;;
24277;SDS011;12394;42.692;23.314;2022-12-16T07:41:49;81.57;;;42.43;;
24277;SDS011;12394;42.692;23.314;2022-12-16T07:44:33;94.87;;;46.37;;
24277;SDS011;12394;42.692;23.314;2022-12-16T07:47:30;100.47;;;51.27;;
24277;SDS011;12394;42.692;23.314;2022-12-16T07:50:14;96.90;;;48.57;;
24277;SDS011;12394;42.692;23.314;2022-12-16T07:52:58;113.03;;;57.17;;
24277;SDS011;12394;42.692;23.314;2022-12-16T07:55:43;111.43;;;55.60;;
24277;SDS011;12394;42.692;23.314;2022-12-16T07:58:28;125.63;;;59.17;;
24277;SDS011;12394;42.692;23.314;2022-12-16T08:01:12;133.73;;;63.10;;
24277;SDS011;12394;42.692;23.314;2022-12-16T08:03:56;144.37;;;64.43;;
24277;SDS011;12394;42.692;23.314;2022-12-16T08:06:40;127.53;;;59.57;;
24277;SDS011;12394;42.692;23.314;2022-12-16T08:09:24;116.23;;;56.10;;
24277;SDS011;12394;42.692;23.314;2022-12-16T08:12:08;118.93;;;59.23;;
24277;SDS011;12394;42.692;23.314;2022-12-16T08:14:52;112.30;;;54.07;;
24277;SDS011;12394;42.692;23.314;2022-12-16T08:17:50;96.60;;;47.27;;
24277;SDS011;12394;42.692;23.314;2022-12-16T08:20:35;88.77;;;44.17;;
24277;SDS011;12394;42.692;23.314;2022-12-16T08:23:19;87.10;;;43.87;;
24277;SDS011;12394;42.692;23.314;2022-12-16T08:26:03;76.23;;;38.03;;
24277;SDS011;12394;42.692;23.314;2022-12-16T08:28:48;66.93;;;35.87;;
24277;SDS011;12394;42.692;23.314;2022-12-16T08:31:32;71.90;;;37.30;;
24277;SDS011;12394;42.692;23.314;2022-12-16T08:34:16;70.97;;;36.63;;
24277;SDS011;12394;42.692;23.314;2022-12-16T08:37:00;75.50;;;37.13;;
24277;SDS011;12394;42.692;23.314;2022-12-16T08:39:44;70.23;;;35.93;;
24277;SDS011;12394;42.692;23.314;2022-12-16T08:42:28;78.37;;;38.50;;
24277;SDS011;12394;42.692;23.314;2022-12-16T08:45:13;72.97;;;34.70;;
24277;SDS011;12394;42.692;23.314;2022-12-16T08:47:57;61.93;;;33.10;;
24277;SDS011;12394;42.692;23.314;2022-12-16T08:50:41;58.57;;;32.70;;
24277;SDS011;12394;42.692;23.314;2022-12-16T08:53:26;68.37;;;36.70;;
24277;SDS011;12394;42.692;23.314;2022-12-16T08:56:10;69.17;;;38.53;;
24277;SDS011;12394;42.692;23.314;2022-12-16T08:58:54;67.87;;;36.73;;
24277;SDS011;12394;42.692;23.314;2022-12-16T09:01:38;68.20;;;38.97;;
24277;SDS011;12394;42.692;23.314;2022-12-16T09:04:22;77.00;;;40.13;;
24277;SDS011;12394;42.692;23.314;2022-12-16T09:07:06;77.67;;;40.00;;
24277;SDS011;12394;42.692;23.314;2022-12-16T09:09:50;72.63;;;39.63;;
24277;SDS011;12394;42.692;23.314;2022-12-16T09:12:35;68.83;;;38.57;;
24277;SDS011;12394;42.692;23.314;2022-12-16T09:15:18;64.60;;;35.87;;
24277;SDS011;12394;42.692;23.314;2022-12-16T09:18:02;61.33;;;35.73;;
24277;SDS011;12394;42.692;23.314;2022-12-16T09:20:46;57.30;;;33.63;;
24277;SDS011;12394;42.692;23.314;2022-12-16T09:23:31;62.50;;;32.93;;
24277;SDS011;12394;42.692;23.314;2022-12-16T09:26:15;59.23;;;31.50;;
24277;SDS011;12394;42.692;23.314;2022-12-16T09:28:59;57.87;;;33.33;;
24277;SDS011;12394;42.692;23.314;2022-12-16T09:31:43;55.47;;;31.23;;
24277;SDS011;12394;42.692;23.314;2022-12-16T09:34:27;49.37;;;28.53;;
24277;SDS011;12394;42.692;23.314;2022-12-16T09:37:10;46.63;;;27.37;;
24277;SDS011;12394;42.692;23.314;2022-12-16T09:39:54;52.90;;;30.17;;
24277;SDS011;12394;42.692;23.314;2022-12-16T09:42:57;44.40;;;29.03;;
24277;SDS011;12394;42.692;23.314;2022-12-16T09:51:54;55.10;;;35.30;;
24277;SDS011;12394;42.692;23.314;2022-12-16T09:54:39;58.53;;;35.67;;
24277;SDS011;12394;42.692;23.314;2022-12-16T09:57:37;51.77;;;36.33;;
24277;SDS011;12394;42.692;23.314;2022-12-16T10:00:22;61.63;;;38.93;;
24277;SDS011;12394;42.692;23.314;2022-12-16T10:03:21;66.50;;;47.73;;
24277;SDS011;12394;42.692;23.314;2022-12-16T10:18:58;67.60;;;44.60;;
24277;SDS011;12394;42.692;23.314;2022-12-16T10:31:29;56.73;;;38.60;;
24277;SDS011;12394;42.692;23.314;2022-12-16T10:34:17;54.80;;;37.70;;
24277;SDS011;12394;42.692;23.314;2022-12-16T10:37:04;50.47;;;36.13;;
24277;SDS011;12394;42.692;23.314;2022-12-16T10:39:57;70.00;;;49.10;;
24277;SDS011;12394;42.692;23.314;2022-12-16T10:42:58;55.57;;;38.13;;
24277;SDS011;12394;42.692;23.314;2022-12-16T10:45:48;50.10;;;36.50;;
24277;SDS011;12394;42.692;23.314;2022-12-16T10:48:34;55.17;;;38.63;;
24277;SDS011;12394;42.692;23.314;2022-12-16T10:51:20;53.33;;;37.97;;
24277;SDS011;12394;42.692;23.314;2022-12-16T10:57:36;56.57;;;38.20;;
24277;SDS011;12394;42.692;23.314;2022-12-16T11:00:38;50.33;;;37.83;;
24277;SDS011;12394;42.692;23.314;2022-12-16T11:03:28;55.00;;;38.20;;
24277;SDS011;12394;42.692;23.314;2022-12-16T11:06:26;50.30;;;35.10;;
24277;SDS011;12394;42.692;23.314;2022-12-16T11:18:12;49.90;;;35.17;;
24277;SDS011;12394;42.692;23.314;2022-12-16T11:21:18;45.73;;;33.57;;
24277;SDS011;12394;42.692;23.314;2022-12-16T11:27:09;45.03;;;33.20;;
24277;SDS011;12394;42.692;23.314;2022-12-16T11:30:03;43.63;;;31.03;;
24277;SDS011;12394;42.692;23.314;2022-12-16T11:32:59;63.47;;;34.67;;
24277;SDS011;12394;42.692;23.314;2022-12-16T11:36:10;43.50;;;31.10;;
24277;SDS011;12394;42.692;23.314;2022-12-16T11:39:01;40.30;;;26.30;;
24277;SDS011;12394;42.692;23.314;2022-12-16T11:41:47;36.87;;;26.70;;
24277;SDS011;12394;42.692;23.314;2022-12-16T11:44:35;45.67;;;27.20;;
24277;SDS011;12394;42.692;23.314;2022-12-16T11:50:49;49.57;;;28.30;;
24277;SDS011;12394;42.692;23.314;2022-12-16T11:53:42;44.77;;;27.40;;
24277;SDS011;12394;42.692;23.314;2022-12-16T11:56:42;42.93;;;28.00;;
24277;SDS011;12394;42.692;23.314;2022-12-16T12:02:37;40.70;;;26.00;;
24277;SDS011;12394;42.692;23.314;2022-12-16T12:05:41;41.60;;;26.53;;
24277;SDS011;12394;42.692;23.314;2022-12-16T12:21:18;31.30;;;21.23;;
24277;SDS011;12394;42.692;23.314;2022-12-16T12:42:29;37.53;;;24.73;;
24277;SDS011;12394;42.692;23.314;2022-12-16T12:45:28;37.50;;;24.97;;
24277;SDS011;12394;42.692;23.314;2022-12-16T12:48:37;40.57;;;26.10;;
24277;SDS011;12394;42.692;23.314;2022-12-16T12:52:08;46.17;;;26.77;;
24277;SDS011;12394;42.692;23.314;2022-12-16T12:55:19;50.30;;;26.90;;
24277;SDS011;12394;42.692;23.314;2022-12-16T12:58:11;39.97;;;25.37;;
24277;SDS011;12394;42.692;23.314;2022-12-16T13:00:57;40.37;;;24.67;;
24277;SDS011;12394;42.692;23.314;2022-12-16T13:06:28;37.33;;;24.63;;
24277;SDS011;12394;42.692;23.314;2022-12-16T13:27:14;46.03;;;24.87;;
24277;SDS011;12394;42.692;23.314;2022-12-16T13:30:00;88.37;;;63.57;;
24277;SDS011;12394;42.692;23.314;2022-12-16T13:33:04;33.67;;;23.00;;
24277;SDS011;12394;42.692;23.314;2022-12-16T13:35:52;39.77;;;24.73;;
24277;SDS011;12394;42.692;23.314;2022-12-16T13:38:46;43.53;;;26.00;;
24277;SDS011;12394;42.692;23.314;2022-12-16T13:48:00;48.77;;;29.97;;
24277;SDS011;12394;42.692;23.314;2022-12-16T13:50:40;52.40;;;26.33;;
24277;SDS011;12394;42.692;23.314;2022-12-16T13:53:30;38.00;;;23.87;;
24277;SDS011;12394;42.692;23.314;2022-12-16T13:56:22;39.47;;;25.80;;
24277;SDS011;12394;42.692;23.314;2022-12-16T13:59:15;39.63;;;26.40;;
24277;SDS011;12394;42.692;23.314;2022-12-16T14:02:13;47.30;;;30.17;;
24277;SDS011;12394;42.692;23.314;2022-12-16T14:05:03;40.87;;;26.13;;
24277;SDS011;12394;42.692;23.314;2022-12-16T14:07:59;43.33;;;28.43;;
24277;SDS011;12394;42.692;23.314;2022-12-16T14:10:43;44.97;;;29.17;;
24277;SDS011;12394;42.692;23.314;2022-12-16T14:13:29;46.23;;;27.77;;
24277;SDS011;12394;42.692;23.314;2022-12-16T14:16:15;55.07;;;28.10;;
24277;SDS011;12394;42.692;23.314;2022-12-16T14:22:47;46.20;;;28.30;;
24277;SDS011;12394;42.692;23.314;2022-12-16T14:25:48;49.80;;;30.03;;
24277;SDS011;12394;42.692;23.314;2022-12-16T14:28:40;45.97;;;30.37;;
24277;SDS011;12394;42.692;23.314;2022-12-16T14:31:26;55.30;;;34.67;;
24277;SDS011;12394;42.692;23.314;2022-12-16T14:34:14;54.37;;;30.10;;
24277;SDS011;12394;42.692;23.314;2022-12-16T14:36:59;51.97;;;31.60;;
24277;SDS011;12394;42.692;23.314;2022-12-16T14:39:55;52.53;;;30.60;;
24277;SDS011;12394;42.692;23.314;2022-12-16T14:42:38;46.03;;;29.40;;
24277;SDS011;12394;42.692;23.314;2022-12-16T14:45:28;60.27;;;32.03;;
24277;SDS011;12394;42.692;23.314;2022-12-16T14:51:14;45.67;;;29.57;;
24277;SDS011;12394;42.692;23.314;2022-12-16T14:57:15;50.07;;;29.43;;
24277;SDS011;12394;42.692;23.314;2022-12-16T15:00:00;45.77;;;28.90;;
24277;SDS011;12394;42.692;23.314;2022-12-16T15:05:42;50.70;;;27.87;;
24277;SDS011;12394;42.692;23.314;2022-12-16T15:08:27;54.23;;;29.80;;
24277;SDS011;12394;42.692;23.314;2022-12-16T15:11:15;50.87;;;29.07;;
24277;SDS011;12394;42.692;23.314;2022-12-16T15:14:03;49.23;;;27.83;;
24277;SDS011;12394;42.692;23.314;2022-12-16T15:16:49;52.40;;;28.10;;
24277;SDS011;12394;42.692;23.314;2022-12-16T15:19:42;41.80;;;26.30;;
24277;SDS011;12394;42.692;23.314;2022-12-16T15:22:31;44.37;;;28.43;;
24277;SDS011;12394;42.692;23.314;2022-12-16T15:25:17;47.00;;;28.40;;
24277;SDS011;12394;42.692;23.314;2022-12-16T15:28:02;43.23;;;27.30;;
24277;SDS011;12394;42.692;23.314;2022-12-16T15:30:46;46.40;;;25.77;;
24277;SDS011;12394;42.692;23.314;2022-12-16T15:33:32;46.57;;;26.93;;
24277;SDS011;12394;42.692;23.314;2022-12-16T15:36:27;49.57;;;29.67;;
24277;SDS011;12394;42.692;23.314;2022-12-16T15:39:17;55.47;;;28.90;;
24277;SDS011;12394;42.692;23.314;2022-12-16T15:42:20;53.53;;;31.17;;
24277;SDS011;12394;42.692;23.314;2022-12-16T15:45:04;58.53;;;32.00;;
24277;SDS011;12394;42.692;23.314;2022-12-16T15:48:30;50.47;;;29.70;;
24277;SDS011;12394;42.692;23.314;2022-12-16T15:51:40;51.13;;;28.57;;
24277;SDS011;12394;42.692;23.314;2022-12-16T15:54:27;40.20;;;23.53;;
24277;SDS011;12394;42.692;23.314;2022-12-16T15:57:28;48.07;;;30.73;;
24277;SDS011;12394;42.692;23.314;2022-12-16T16:00:30;44.00;;;29.17;;
24277;SDS011;12394;42.692;23.314;2022-12-16T16:03:19;40.30;;;27.83;;
24277;SDS011;12394;42.692;23.314;2022-12-16T16:09:28;40.03;;;25.47;;
24277;SDS011;12394;42.692;23.314;2022-12-16T16:12:14;42.67;;;25.87;;
24277;SDS011;12394;42.692;23.314;2022-12-16T16:15:00;41.60;;;26.17;;
24277;SDS011;12394;42.692;23.314;2022-12-16T16:17:46;43.17;;;23.63;;
24277;SDS011;12394;42.692;23.314;2022-12-16T16:20:33;46.20;;;23.60;;
24277;SDS011;12394;42.692;23.314;2022-12-16T16:23:17;39.53;;;24.60;;
24277;SDS011;12394;42.692;23.314;2022-12-16T16:26:01;31.77;;;20.63;;
24277;SDS011;12394;42.692;23.314;2022-12-16T16:28:45;33.10;;;19.77;;
24277;SDS011;12394;42.692;23.314;2022-12-16T16:31:29;29.20;;;19.60;;
24277;SDS011;12394;42.692;23.314;2022-12-16T16:34:13;36.30;;;20.67;;
24277;SDS011;12394;42.692;23.314;2022-12-16T16:36:57;40.70;;;22.33;;
24277;SDS011;12394;42.692;23.314;2022-12-16T16:39:41;37.30;;;20.87;;
24277;SDS011;12394;42.692;23.314;2022-12-16T16:42:26;29.63;;;19.43;;
24277;SDS011;12394;42.692;23.314;2022-12-16T16:45:11;41.07;;;23.47;;
24277;SDS011;12394;42.692;23.314;2022-12-16T16:48:01;45.63;;;25.53;;
24277;SDS011;12394;42.692;23.314;2022-12-16T16:50:54;45.53;;;27.33;;
24277;SDS011;12394;42.692;23.314;2022-12-16T16:53:38;51.57;;;32.03;;
24277;SDS011;12394;42.692;23.314;2022-12-16T16:56:22;53.23;;;31.23;;
24277;SDS011;12394;42.692;23.314;2022-12-16T16:59:08;61.07;;;36.27;;
24277;SDS011;12394;42.692;23.314;2022-12-16T17:01:54;57.57;;;35.07;;
24277;SDS011;12394;42.692;23.314;2022-12-16T17:04:38;64.57;;;36.23;;
24277;SDS011;12394;42.692;23.314;2022-12-16T17:07:22;54.17;;;35.13;;
24277;SDS011;12394;42.692;23.314;2022-12-16T17:10:06;56.60;;;35.87;;
24277;SDS011;12394;42.692;23.314;2022-12-16T17:12:50;59.70;;;36.70;;
24277;SDS011;12394;42.692;23.314;2022-12-16T17:15:35;63.07;;;39.50;;
24277;SDS011;12394;42.692;23.314;2022-12-16T17:18:19;56.23;;;35.77;;
24277;SDS011;12394;42.692;23.314;2022-12-16T17:21:04;59.17;;;38.50;;
24277;SDS011;12394;42.692;23.314;2022-12-16T17:23:48;65.47;;;41.70;;
24277;SDS011;12394;42.692;23.314;2022-12-16T17:26:32;59.97;;;37.97;;
24277;SDS011;12394;42.692;23.314;2022-12-16T17:29:22;56.53;;;36.40;;
24277;SDS011;12394;42.692;23.314;2022-12-16T17:32:07;69.47;;;41.07;;
24277;SDS011;12394;42.692;23.314;2022-12-16T17:34:52;78.70;;;54.03;;
24277;SDS011;12394;42.692;23.314;2022-12-16T17:37:36;50.57;;;33.70;;
24277;SDS011;12394;42.692;23.314;2022-12-16T17:40:40;64.27;;;43.43;;
24277;SDS011;12394;42.692;23.314;2022-12-16T17:43:24;56.03;;;34.67;;
24277;SDS011;12394;42.692;23.314;2022-12-16T17:46:09;48.43;;;32.60;;
24277;SDS011;12394;42.692;23.314;2022-12-16T17:48:54;62.50;;;36.23;;
24277;SDS011;12394;42.692;23.314;2022-12-16T17:51:39;58.30;;;36.03;;
24277;SDS011;12394;42.692;23.314;2022-12-16T17:54:23;53.60;;;34.30;;
24277;SDS011;12394;42.692;23.314;2022-12-16T17:57:08;49.57;;;31.70;;
24277;SDS011;12394;42.692;23.314;2022-12-16T17:59:52;52.90;;;32.93;;
24277;SDS011;12394;42.692;23.314;2022-12-16T18:02:36;52.53;;;34.67;;
24277;SDS011;12394;42.692;23.314;2022-12-16T18:05:20;48.17;;;29.33;;
24277;SDS011;12394;42.692;23.314;2022-12-16T18:08:04;43.90;;;26.73;;